createdAt,value
2023-03-31T00:00:16.884Z,996.55
2023-03-31T00:01:16.852Z,996.55
2023-03-31T00:02:16.900Z,996.58
2023-03-31T00:03:16.868Z,996.57
2023-03-31T00:04:16.995Z,996.57
2023-03-31T00:05:16.875Z,996.48
2023-03-31T00:06:16.805Z,996.48
2023-03-31T00:07:16.794Z,996.47
2023-03-31T00:08:16.819Z,996.50
2023-03-31T00:09:16.782Z,996.50
2023-03-31T00:10:18.613Z,996.52
2023-03-31T00:11:16.763Z,996.43
2023-03-31T00:12:16.796Z,996.46
2023-03-31T00:13:16.752Z,996.49
2023-03-31T00:14:16.725Z,996.39
2023-03-31T00:15:16.703Z,996.66
2023-03-31T00:16:16.739Z,996.39
2023-03-31T00:17:16.711Z,996.34
2023-03-31T00:18:16.681Z,996.30
2023-03-31T00:19:16.801Z,996.30
2023-03-31T00:20:16.650Z,996.26
2023-03-31T00:21:16.632Z,996.29
2023-03-31T00:22:16.644Z,996.27
2023-03-31T00:23:16.618Z,996.19
2023-03-31T00:24:16.674Z,996.21
2023-03-31T00:25:16.641Z,996.20
2023-03-31T00:26:16.588Z,996.22
2023-03-31T00:27:16.615Z,996.22
2023-03-31T00:28:16.571Z,996.19
2023-03-31T00:29:16.555Z,996.16
2023-03-31T00:30:16.544Z,996.21
2023-03-31T00:31:16.602Z,996.18
2023-03-31T00:32:16.547Z,996.21
2023-03-31T00:33:16.507Z,996.12
2023-03-31T00:34:16.507Z,996.11
2023-03-31T00:35:16.512Z,996.06
2023-03-31T00:36:16.555Z,996.15
2023-03-31T00:37:16.469Z,996.11
2023-03-31T00:38:16.491Z,996.07
2023-03-31T00:39:16.444Z,996.09
2023-03-31T00:40:16.436Z,996.09
2023-03-31T00:41:16.451Z,996.08
2023-03-31T00:42:16.436Z,996.06
2023-03-31T00:43:16.402Z,996.02
2023-03-31T00:44:16.417Z,996.01
2023-03-31T00:45:16.437Z,996.00
2023-03-31T00:46:16.464Z,995.95
2023-03-31T00:47:16.350Z,995.96
2023-03-31T00:48:16.375Z,995.94
2023-03-31T00:49:16.352Z,995.93
2023-03-31T00:50:16.371Z,995.87
2023-03-31T00:51:16.319Z,995.90
2023-03-31T00:52:16.331Z,995.94
2023-03-31T00:53:16.272Z,995.91
2023-03-31T00:54:16.321Z,995.89
2023-03-31T00:55:16.342Z,995.90
2023-03-31T00:56:16.276Z,995.93
2023-03-31T00:57:16.348Z,995.86
2023-03-31T00:58:16.238Z,995.85
2023-03-31T00:59:16.243Z,995.78
2023-03-31T01:00:16.295Z,995.82
2023-03-31T01:01:16.264Z,995.78
2023-03-31T01:02:16.213Z,995.75
2023-03-31T01:03:16.320Z,995.69
2023-03-31T01:04:16.196Z,995.69
2023-03-31T01:05:16.179Z,995.69
2023-03-31T01:06:16.163Z,995.72
2023-03-31T01:07:16.134Z,995.71
2023-03-31T01:08:16.168Z,995.65
2023-03-31T01:09:16.112Z,995.63
2023-03-31T01:10:16.148Z,995.60
2023-03-31T01:11:16.103Z,995.62
2023-03-31T01:12:16.102Z,995.59
2023-03-31T01:13:16.090Z,995.54
2023-03-31T01:14:16.088Z,995.53
2023-03-31T01:15:16.070Z,995.54
2023-03-31T01:16:16.103Z,995.52
2023-03-31T01:17:16.117Z,995.52
2023-03-31T01:18:16.185Z,995.50
2023-03-31T01:19:16.030Z,995.46
2023-03-31T01:20:16.045Z,995.51
2023-03-31T01:21:15.995Z,995.45
2023-03-31T01:22:16.006Z,995.45
2023-03-31T01:23:15.988Z,995.37
2023-03-31T01:24:15.985Z,995.39
2023-03-31T01:25:15.957Z,995.34
2023-03-31T01:26:15.977Z,995.33
2023-03-31T01:27:15.916Z,995.38
2023-03-31T01:28:15.922Z,995.35
2023-03-31T01:29:15.910Z,995.34
2023-03-31T01:30:15.911Z,995.34
2023-03-31T01:31:15.919Z,995.30
2023-03-31T01:32:15.873Z,995.33
2023-03-31T01:33:15.864Z,995.31
2023-03-31T01:34:15.885Z,995.25
2023-03-31T01:35:15.836Z,995.24
2023-03-31T01:36:15.911Z,995.25
2023-03-31T01:37:15.839Z,995.18
2023-03-31T01:38:15.818Z,995.15
2023-03-31T01:39:15.816Z,995.13
2023-03-31T01:40:15.829Z,995.18
2023-03-31T01:41:15.792Z,995.15
2023-03-31T01:42:15.779Z,995.19
2023-03-31T01:43:15.761Z,995.17
2023-03-31T01:44:15.758Z,995.13
2023-03-31T01:45:24.336Z,995.11
2023-03-31T01:46:17.528Z,995.08
2023-03-31T01:47:15.756Z,995.10
2023-03-31T01:48:15.762Z,995.06
2023-03-31T01:49:15.724Z,995.08
2023-03-31T01:50:15.741Z,995.03
2023-03-31T01:51:15.738Z,995.03
2023-03-31T01:52:15.749Z,994.99
2023-03-31T01:53:15.678Z,994.99
2023-03-31T01:54:15.675Z,994.96
2023-03-31T01:55:15.674Z,994.98
2023-03-31T01:56:15.675Z,994.84
2023-03-31T01:57:15.864Z,994.89
2023-03-31T01:58:15.629Z,994.92
2023-03-31T01:59:15.660Z,994.89
2023-03-31T02:00:15.628Z,994.91
2023-03-31T02:01:15.664Z,994.89
2023-03-31T02:02:15.635Z,994.88
2023-03-31T02:03:15.642Z,994.89
2023-03-31T02:04:15.565Z,994.89
2023-03-31T02:05:15.529Z,994.90
2023-03-31T02:06:15.544Z,994.84
2023-03-31T02:07:15.518Z,994.86
2023-03-31T02:08:15.518Z,994.81
2023-03-31T02:09:15.476Z,994.87
2023-03-31T02:10:15.485Z,994.79
2023-03-31T02:11:15.453Z,994.72
2023-03-31T02:12:15.488Z,994.72
2023-03-31T02:13:15.505Z,994.69
2023-03-31T02:14:15.469Z,994.63
2023-03-31T02:15:15.409Z,994.65
2023-03-31T02:16:15.455Z,994.57
2023-03-31T02:17:15.431Z,994.61
2023-03-31T02:18:15.410Z,994.60
2023-03-31T02:19:15.384Z,994.62
2023-03-31T02:20:15.391Z,994.58
2023-03-31T02:21:16.069Z,994.59
2023-03-31T02:22:15.354Z,994.57
2023-03-31T02:23:15.367Z,994.53
2023-03-31T02:24:15.374Z,994.52
2023-03-31T02:25:15.355Z,994.53
2023-03-31T02:26:15.340Z,994.48
2023-03-31T02:27:15.284Z,994.41
2023-03-31T02:28:15.355Z,994.44
2023-03-31T02:29:15.262Z,994.42
2023-03-31T02:30:15.266Z,994.44
2023-03-31T02:31:15.531Z,994.40
2023-03-31T02:32:15.315Z,994.40
2023-03-31T02:33:15.210Z,994.33
2023-03-31T02:34:15.263Z,994.33
2023-03-31T02:35:15.202Z,994.32
2023-03-31T02:36:15.240Z,994.29
2023-03-31T02:37:15.187Z,994.26
2023-03-31T02:38:15.175Z,994.26
2023-03-31T02:39:15.152Z,994.21
2023-03-31T02:40:15.148Z,994.28
2023-03-31T02:41:15.143Z,994.19
2023-03-31T02:42:15.142Z,994.18
2023-03-31T02:43:15.122Z,994.16
2023-03-31T02:44:15.120Z,994.15
2023-03-31T02:45:15.102Z,994.19
2023-03-31T02:46:15.120Z,994.17
2023-03-31T02:47:15.066Z,994.18
2023-03-31T02:48:15.072Z,994.19
2023-03-31T02:49:15.084Z,994.20
2023-03-31T02:50:15.052Z,994.16
2023-03-31T02:51:15.022Z,994.15
2023-03-31T02:52:15.053Z,994.11
2023-03-31T02:53:15.020Z,994.12
2023-03-31T02:54:15.011Z,994.08
2023-03-31T02:55:14.991Z,994.09
2023-03-31T02:56:15.018Z,994.07
2023-03-31T02:57:14.999Z,994.05
2023-03-31T02:58:14.987Z,994.03
2023-03-31T02:59:15.190Z,994.01
2023-03-31T03:00:14.964Z,994.01
2023-03-31T03:01:14.986Z,993.99
2023-03-31T03:02:14.955Z,993.97
2023-03-31T03:03:14.960Z,993.98
2023-03-31T03:04:14.922Z,994.00
2023-03-31T03:05:14.912Z,993.96
2023-03-31T03:06:14.884Z,993.93
2023-03-31T03:07:14.862Z,993.89
2023-03-31T03:08:14.853Z,993.82
2023-03-31T03:09:14.859Z,993.85
2023-03-31T03:10:14.824Z,993.79
2023-03-31T03:11:14.838Z,993.75
2023-03-31T03:12:14.816Z,993.77
2023-03-31T03:13:14.848Z,993.72
2023-03-31T03:14:14.794Z,993.74
2023-03-31T03:15:14.801Z,993.71
2023-03-31T03:16:14.777Z,993.70
2023-03-31T03:17:14.778Z,993.67
2023-03-31T03:18:14.754Z,993.60
2023-03-31T03:19:14.750Z,993.61
2023-03-31T03:20:14.715Z,993.61
2023-03-31T03:21:15.045Z,993.57
2023-03-31T03:22:14.739Z,993.54
2023-03-31T03:23:14.696Z,993.58
2023-03-31T03:24:14.680Z,993.55
2023-03-31T03:25:14.681Z,993.52
2023-03-31T03:26:14.673Z,993.53
2023-03-31T03:27:14.669Z,993.45
2023-03-31T03:28:14.630Z,993.55
2023-03-31T03:29:14.675Z,993.54
2023-03-31T03:30:14.713Z,993.54
2023-03-31T03:31:15.391Z,993.57
2023-03-31T03:32:14.599Z,993.50
2023-03-31T03:33:15.913Z,993.53
2023-03-31T03:34:14.567Z,993.47
2023-03-31T03:35:14.568Z,993.44
2023-03-31T03:36:14.571Z,993.43
2023-03-31T03:37:14.536Z,993.48
2023-03-31T03:38:14.530Z,993.42
2023-03-31T03:39:14.516Z,993.42
2023-03-31T03:40:14.510Z,993.45
2023-03-31T03:41:14.939Z,993.42
2023-03-31T03:42:14.506Z,993.41
2023-03-31T03:43:14.492Z,993.41
2023-03-31T03:44:14.473Z,993.34
2023-03-31T03:45:14.503Z,993.30
2023-03-31T03:46:14.492Z,993.27
2023-03-31T03:47:14.442Z,993.15
2023-03-31T03:48:14.406Z,993.05
2023-03-31T03:49:14.415Z,993.02
2023-03-31T03:50:16.150Z,992.95
2023-03-31T03:51:14.386Z,992.93
2023-03-31T03:52:14.398Z,992.85
2023-03-31T03:53:15.294Z,992.85
2023-03-31T03:54:14.385Z,992.87
2023-03-31T03:55:14.376Z,992.83
2023-03-31T03:56:14.359Z,992.86
2023-03-31T03:57:14.411Z,992.83
2023-03-31T03:58:14.316Z,992.78
2023-03-31T03:59:14.322Z,992.77
2023-03-31T04:00:14.325Z,992.78
2023-03-31T04:01:14.483Z,992.74
2023-03-31T04:02:14.344Z,992.77
2023-03-31T04:03:14.375Z,992.76
2023-03-31T04:04:14.272Z,992.72
2023-03-31T04:05:14.306Z,992.65
2023-03-31T04:06:14.294Z,992.65
2023-03-31T04:07:14.249Z,992.64
2023-03-31T04:08:14.196Z,992.61
2023-03-31T04:09:14.209Z,992.55
2023-03-31T04:10:14.172Z,992.46
2023-03-31T04:11:15.655Z,992.44
2023-03-31T04:12:14.173Z,992.36
2023-03-31T04:13:14.164Z,992.44
2023-03-31T04:14:14.119Z,992.42
2023-03-31T04:15:14.141Z,992.41
2023-03-31T04:16:14.243Z,992.44
2023-03-31T04:17:14.122Z,992.36
2023-03-31T04:18:15.091Z,992.31
2023-03-31T04:19:14.090Z,992.31
2023-03-31T04:20:14.066Z,992.28
2023-03-31T04:21:14.138Z,992.23
2023-03-31T04:22:14.043Z,992.28
2023-03-31T04:23:14.066Z,992.22
2023-03-31T04:24:14.032Z,992.25
2023-03-31T04:25:14.054Z,992.20
2023-03-31T04:26:14.056Z,992.22
2023-03-31T04:27:14.007Z,992.16
2023-03-31T04:28:13.981Z,992.22
2023-03-31T04:29:14.054Z,992.16
2023-03-31T04:30:13.972Z,992.14
2023-03-31T04:31:14.385Z,992.11
2023-03-31T04:32:14.098Z,992.13
2023-03-31T04:33:13.941Z,992.09
2023-03-31T04:34:14.133Z,992.05
2023-03-31T04:35:13.945Z,992.08
2023-03-31T04:36:13.928Z,992.04
2023-03-31T04:37:13.873Z,992.06
2023-03-31T04:38:13.948Z,992.05
2023-03-31T04:39:13.870Z,992.07
2023-03-31T04:40:13.862Z,992.07
2023-03-31T04:41:14.533Z,992.00
2023-03-31T04:42:13.833Z,992.00
2023-03-31T04:43:13.840Z,992.03
2023-03-31T04:44:13.823Z,991.99
2023-03-31T04:45:13.812Z,992.05
2023-03-31T04:46:13.826Z,992.01
2023-03-31T04:47:13.798Z,991.91
2023-03-31T04:48:13.799Z,991.97
2023-03-31T04:49:13.783Z,991.92
2023-03-31T04:50:16.698Z,991.89
2023-03-31T04:51:14.271Z,991.88
2023-03-31T04:52:13.719Z,991.82
2023-03-31T04:53:13.740Z,991.83
2023-03-31T04:54:13.735Z,991.80
2023-03-31T04:55:13.692Z,991.77
2023-03-31T04:56:13.717Z,991.78
2023-03-31T04:57:13.734Z,991.72
2023-03-31T04:58:13.664Z,991.74
2023-03-31T04:59:13.685Z,991.74
2023-03-31T05:00:13.670Z,991.67
2023-03-31T05:01:13.763Z,991.69
2023-03-31T05:02:13.638Z,991.61
2023-03-31T05:03:13.871Z,991.62
2023-03-31T05:04:13.596Z,991.59
2023-03-31T05:05:13.580Z,991.60
2023-03-31T05:06:13.554Z,991.55
2023-03-31T05:07:13.570Z,991.56
2023-03-31T05:08:13.547Z,991.57
2023-03-31T05:09:13.564Z,991.56
2023-03-31T05:10:13.537Z,991.54
2023-03-31T05:11:13.551Z,991.51
2023-03-31T05:12:13.559Z,991.57
2023-03-31T05:13:13.536Z,991.53
2023-03-31T05:14:13.506Z,991.55
2023-03-31T05:15:13.526Z,991.51
2023-03-31T05:16:13.519Z,991.55
2023-03-31T05:17:13.482Z,991.55
2023-03-31T05:18:13.528Z,991.49
2023-03-31T05:19:13.483Z,991.49
2023-03-31T05:20:13.442Z,991.50
2023-03-31T05:21:13.457Z,991.50
2023-03-31T05:22:13.573Z,991.48
2023-03-31T05:23:13.474Z,991.45
2023-03-31T05:24:13.433Z,991.40
2023-03-31T05:25:13.407Z,991.36
2023-03-31T05:26:13.406Z,991.30
2023-03-31T05:27:13.377Z,991.32
2023-03-31T05:28:13.369Z,991.21
2023-03-31T05:29:13.356Z,991.21
2023-03-31T05:30:13.318Z,991.18
2023-03-31T05:31:14.570Z,991.15
2023-03-31T05:32:13.300Z,991.14
2023-03-31T05:33:13.325Z,991.13
2023-03-31T05:34:13.396Z,991.11
2023-03-31T05:35:13.292Z,991.15
2023-03-31T05:36:13.307Z,991.15
2023-03-31T05:37:13.253Z,991.12
2023-03-31T05:38:13.243Z,991.08
2023-03-31T05:39:13.240Z,991.09
2023-03-31T05:40:13.235Z,991.07
2023-03-31T05:41:13.508Z,991.06
2023-03-31T05:42:13.356Z,991.02
2023-03-31T05:43:13.365Z,991.01
2023-03-31T05:44:13.228Z,990.99
2023-03-31T05:45:13.178Z,991.01
2023-03-31T05:46:13.183Z,991.02
2023-03-31T05:47:13.149Z,991.05
2023-03-31T05:48:13.158Z,991.07
2023-03-31T05:49:13.129Z,991.01
2023-03-31T05:50:14.787Z,991.05
2023-03-31T05:51:13.877Z,991.02
2023-03-31T05:52:13.101Z,991.05
2023-03-31T05:53:13.117Z,990.99
2023-03-31T05:54:13.115Z,990.98
2023-03-31T05:55:13.076Z,990.95
2023-03-31T05:56:13.054Z,990.95
2023-03-31T05:57:13.124Z,990.96
2023-03-31T05:58:13.085Z,990.96
2023-03-31T05:59:15.023Z,990.93
2023-03-31T06:00:13.009Z,990.96
2023-03-31T06:01:14.775Z,990.89
2023-03-31T06:02:13.066Z,990.89
2023-03-31T06:03:13.067Z,990.85
2023-03-31T06:04:13.095Z,990.83
2023-03-31T06:05:13.556Z,990.82
2023-03-31T06:06:12.954Z,990.82
2023-03-31T06:07:12.937Z,990.78
2023-03-31T06:08:12.920Z,990.79
2023-03-31T06:09:12.926Z,990.80
2023-03-31T06:10:12.890Z,990.75
2023-03-31T06:11:12.914Z,990.78
2023-03-31T06:12:12.858Z,990.67
2023-03-31T06:13:12.902Z,990.64
2023-03-31T06:14:12.870Z,990.65
2023-03-31T06:15:12.883Z,990.58
2023-03-31T06:16:12.957Z,990.62
2023-03-31T06:17:12.851Z,990.61
2023-03-31T06:18:12.799Z,990.65
2023-03-31T06:19:12.807Z,990.63
2023-03-31T06:20:26.503Z,990.61
2023-03-31T06:21:13.801Z,990.61
2023-03-31T06:22:12.873Z,990.58
2023-03-31T06:23:12.763Z,990.56
2023-03-31T06:24:12.753Z,990.51
2023-03-31T06:25:12.741Z,990.50
2023-03-31T06:26:12.725Z,990.48
2023-03-31T06:27:12.769Z,990.48
2023-03-31T06:28:12.701Z,990.40
2023-03-31T06:29:12.709Z,990.40
2023-03-31T06:30:12.690Z,990.42
2023-03-31T06:31:12.768Z,990.39
2023-03-31T06:32:12.666Z,990.35
2023-03-31T06:33:12.649Z,990.35
2023-03-31T06:34:12.640Z,990.35
2023-03-31T06:35:12.660Z,990.32
2023-03-31T06:36:12.704Z,990.32
2023-03-31T06:37:12.623Z,990.29
2023-03-31T06:38:12.601Z,990.28
2023-03-31T06:39:12.637Z,990.23
2023-03-31T06:40:12.576Z,990.19
2023-03-31T06:41:12.575Z,990.16
2023-03-31T06:42:12.558Z,990.15
2023-03-31T06:43:12.572Z,990.15
2023-03-31T06:44:12.519Z,990.08
2023-03-31T06:45:12.531Z,990.01
2023-03-31T06:46:12.684Z,990.02
2023-03-31T06:47:12.534Z,989.93
2023-03-31T06:48:12.493Z,989.95
2023-03-31T06:49:12.487Z,989.97
2023-03-31T06:50:12.467Z,989.91
2023-03-31T06:51:12.520Z,989.84
2023-03-31T06:52:12.495Z,989.84
2023-03-31T06:53:12.441Z,989.83
2023-03-31T06:54:12.719Z,989.86
2023-03-31T06:55:12.428Z,989.82
2023-03-31T06:56:12.424Z,989.83
2023-03-31T06:57:12.431Z,989.85
2023-03-31T06:58:12.448Z,989.85
2023-03-31T06:59:12.395Z,989.76
2023-03-31T07:00:12.396Z,989.75
2023-03-31T07:01:12.744Z,989.73
2023-03-31T07:02:12.571Z,989.70
2023-03-31T07:03:12.454Z,989.72
2023-03-31T07:04:12.432Z,989.72
2023-03-31T07:05:12.369Z,989.74
2023-03-31T07:06:12.360Z,989.73
2023-03-31T07:07:12.621Z,989.74
2023-03-31T07:08:12.441Z,989.71
2023-03-31T07:09:12.326Z,989.67
2023-03-31T07:10:12.271Z,989.65
2023-03-31T07:11:16.348Z,989.65
2023-03-31T07:12:12.273Z,989.64
2023-03-31T07:13:12.327Z,989.57
2023-03-31T07:14:12.266Z,989.53
2023-03-31T07:15:12.246Z,989.49
2023-03-31T07:16:12.285Z,989.49
2023-03-31T07:17:12.213Z,989.44
2023-03-31T07:18:12.181Z,989.47
2023-03-31T07:19:12.182Z,989.52
2023-03-31T07:20:13.628Z,989.50
2023-03-31T07:21:12.341Z,989.38
2023-03-31T07:22:12.140Z,989.38
2023-03-31T07:23:12.153Z,989.34
2023-03-31T07:24:12.122Z,989.39
2023-03-31T07:25:12.134Z,989.32
2023-03-31T07:26:12.125Z,989.32
2023-03-31T07:27:12.113Z,989.30
2023-03-31T07:28:12.087Z,989.29
2023-03-31T07:29:12.078Z,989.34
2023-03-31T07:30:12.069Z,989.24
2023-03-31T07:31:14.159Z,989.24
2023-03-31T07:32:12.159Z,989.23
2023-03-31T07:33:12.091Z,989.30
2023-03-31T07:34:12.008Z,989.26
2023-03-31T07:35:12.038Z,989.26
2023-03-31T07:36:13.768Z,989.23
2023-03-31T07:37:11.982Z,989.21
2023-03-31T07:38:12.015Z,989.19
2023-03-31T07:39:11.988Z,989.16
2023-03-31T07:40:11.955Z,989.10
2023-03-31T07:41:11.950Z,989.08
2023-03-31T07:42:11.944Z,989.12
2023-03-31T07:43:11.946Z,989.10
2023-03-31T07:44:11.929Z,989.07
2023-03-31T07:45:11.958Z,989.04
2023-03-31T07:46:18.984Z,989.06
2023-03-31T07:47:13.574Z,989.08
2023-03-31T07:48:11.896Z,989.04
2023-03-31T07:49:12.582Z,989.04
2023-03-31T07:50:11.832Z,989.01
2023-03-31T07:51:11.791Z,988.95
2023-03-31T07:52:11.822Z,988.92
2023-03-31T07:53:11.841Z,988.91
2023-03-31T07:54:11.775Z,988.93
2023-03-31T07:55:11.767Z,988.90
2023-03-31T07:56:11.782Z,988.86
2023-03-31T07:57:11.805Z,988.82
2023-03-31T07:58:11.741Z,988.81
2023-03-31T07:59:11.700Z,988.77
2023-03-31T08:00:11.721Z,988.84
2023-03-31T08:01:11.692Z,988.78
2023-03-31T08:02:11.740Z,988.77
2023-03-31T08:03:11.713Z,988.74
2023-03-31T08:04:12.509Z,988.78
2023-03-31T08:05:11.665Z,988.80
2023-03-31T08:06:11.690Z,988.71
2023-03-31T08:07:11.631Z,988.71
2023-03-31T08:08:11.646Z,988.76
2023-03-31T08:09:11.830Z,988.68
2023-03-31T08:10:11.612Z,988.68
2023-03-31T08:11:11.589Z,988.66
2023-03-31T08:12:11.602Z,988.61
2023-03-31T08:13:11.560Z,988.63
2023-03-31T08:14:11.583Z,988.65
2023-03-31T08:15:11.552Z,988.59
2023-03-31T08:16:11.584Z,988.57
2023-03-31T08:17:11.538Z,988.56
2023-03-31T08:18:11.571Z,988.55
2023-03-31T08:19:11.491Z,988.54
2023-03-31T08:20:11.544Z,988.63
2023-03-31T08:21:11.490Z,988.60
2023-03-31T08:22:11.504Z,988.56
2023-03-31T08:23:11.518Z,988.59
2023-03-31T08:24:11.472Z,988.55
2023-03-31T08:25:11.456Z,988.55
2023-03-31T08:26:11.437Z,988.60
2023-03-31T08:27:12.524Z,988.54
2023-03-31T08:28:11.423Z,988.56
2023-03-31T08:29:11.383Z,988.56
2023-03-31T08:30:11.438Z,988.46
2023-03-31T08:31:11.396Z,988.50
2023-03-31T08:32:11.417Z,988.51
2023-03-31T08:33:11.371Z,988.43
2023-03-31T08:34:11.366Z,988.48
2023-03-31T08:35:11.328Z,988.60
2023-03-31T08:36:11.350Z,988.51
2023-03-31T08:37:11.294Z,988.51
2023-03-31T08:38:11.308Z,988.46
2023-03-31T08:39:11.272Z,988.53
2023-03-31T08:40:11.358Z,988.57
2023-03-31T08:41:11.262Z,988.57
2023-03-31T08:42:12.721Z,988.53
2023-03-31T08:43:11.237Z,988.58
2023-03-31T08:44:11.250Z,988.53
2023-03-31T08:45:11.226Z,988.56
2023-03-31T08:46:11.318Z,988.52
2023-03-31T08:47:11.205Z,988.51
2023-03-31T08:48:11.252Z,988.51
2023-03-31T08:49:11.185Z,988.60
2023-03-31T08:50:11.187Z,988.58
2023-03-31T08:51:11.163Z,988.56
2023-03-31T08:52:11.154Z,988.56
2023-03-31T08:53:11.136Z,988.64
2023-03-31T08:54:13.144Z,988.63
2023-03-31T08:55:11.099Z,988.65
2023-03-31T08:56:11.114Z,988.55
2023-03-31T08:57:11.164Z,988.59
2023-03-31T08:58:11.101Z,988.54
2023-03-31T08:59:11.065Z,988.57
2023-03-31T09:00:11.094Z,988.50
2023-03-31T09:01:11.059Z,988.66
2023-03-31T09:02:11.228Z,988.54
2023-03-31T09:03:11.111Z,988.55
2023-03-31T09:04:12.656Z,988.53
2023-03-31T09:05:11.004Z,988.55
2023-03-31T09:06:11.008Z,988.64
2023-03-31T09:07:10.988Z,988.56
2023-03-31T09:08:10.992Z,988.54
2023-03-31T09:09:10.952Z,988.61
2023-03-31T09:10:10.979Z,988.56
2023-03-31T09:11:11.129Z,988.57
2023-03-31T09:12:10.961Z,988.56
2023-03-31T09:13:10.928Z,988.52
2023-03-31T09:14:10.951Z,988.49
2023-03-31T09:15:10.911Z,988.49
2023-03-31T09:16:12.324Z,988.50
2023-03-31T09:17:11.074Z,988.53
2023-03-31T09:18:10.923Z,988.53
2023-03-31T09:19:10.882Z,988.49
2023-03-31T09:20:10.865Z,988.54
2023-03-31T09:21:10.840Z,988.45
2023-03-31T09:22:10.860Z,988.48
2023-03-31T09:23:10.806Z,988.50
2023-03-31T09:24:10.847Z,988.35
2023-03-31T09:25:10.800Z,988.45
2023-03-31T09:26:10.789Z,988.40
2023-03-31T09:27:10.765Z,988.37
2023-03-31T09:28:10.781Z,988.44
2023-03-31T09:29:10.757Z,988.39
2023-03-31T09:30:10.754Z,988.43
2023-03-31T09:31:10.757Z,988.45
2023-03-31T09:32:10.747Z,988.50
2023-03-31T09:33:10.741Z,988.41
2023-03-31T09:34:11.147Z,988.44
2023-03-31T09:35:10.680Z,988.49
2023-03-31T09:36:10.828Z,988.49
2023-03-31T09:37:10.691Z,988.44
2023-03-31T09:38:10.669Z,988.36
2023-03-31T09:39:10.646Z,988.37
2023-03-31T09:40:10.644Z,988.41
2023-03-31T09:41:10.631Z,988.29
2023-03-31T09:42:10.685Z,988.37
2023-03-31T09:43:10.598Z,988.32
2023-03-31T09:44:10.590Z,988.44
2023-03-31T09:45:10.580Z,988.27
2023-03-31T09:46:10.623Z,988.25
2023-03-31T09:47:11.643Z,988.25
2023-03-31T09:48:10.605Z,988.21
2023-03-31T09:49:10.552Z,988.22
2023-03-31T09:50:10.578Z,988.29
2023-03-31T09:51:10.534Z,988.14
2023-03-31T09:52:10.521Z,988.19
2023-03-31T09:53:10.501Z,988.22
2023-03-31T09:54:10.491Z,988.13
2023-03-31T09:55:10.467Z,988.16
2023-03-31T09:56:10.489Z,988.17
2023-03-31T09:57:10.477Z,988.20
2023-03-31T09:58:10.463Z,988.24
2023-03-31T09:59:10.478Z,988.14
2023-03-31T10:00:10.448Z,988.18
2023-03-31T10:01:10.876Z,988.13
2023-03-31T10:02:10.412Z,988.13
2023-03-31T10:03:10.418Z,988.18
2023-03-31T10:04:10.448Z,988.21
2023-03-31T10:05:10.378Z,988.15
2023-03-31T10:06:10.373Z,988.14
2023-03-31T10:07:10.342Z,988.21
2023-03-31T10:08:10.385Z,988.11
2023-03-31T10:09:10.335Z,988.09
2023-03-31T10:10:10.327Z,988.16
2023-03-31T10:11:10.301Z,988.11
2023-03-31T10:12:10.312Z,988.18
2023-03-31T10:13:10.367Z,988.06
2023-03-31T10:14:10.281Z,988.09
2023-03-31T10:15:10.297Z,988.11
2023-03-31T10:16:10.364Z,988.17
2023-03-31T10:17:10.236Z,988.12
2023-03-31T10:18:10.261Z,988.12
2023-03-31T10:19:10.227Z,988.14
2023-03-31T10:20:10.230Z,988.17
2023-03-31T10:21:10.199Z,988.10
2023-03-31T10:22:10.197Z,988.12
2023-03-31T10:23:10.165Z,988.12
2023-03-31T10:24:10.177Z,988.10
2023-03-31T10:25:10.174Z,988.06
2023-03-31T10:26:10.163Z,988.18
2023-03-31T10:27:10.123Z,988.05
2023-03-31T10:28:10.142Z,988.12
2023-03-31T10:29:10.117Z,988.05
2023-03-31T10:30:10.134Z,988.11
2023-03-31T10:31:11.034Z,988.08
2023-03-31T10:32:10.088Z,988.11
2023-03-31T10:33:21.986Z,988.04
2023-03-31T10:34:11.081Z,988.00
2023-03-31T10:35:10.041Z,987.98
2023-03-31T10:36:10.084Z,988.04
2023-03-31T10:37:10.025Z,987.98
2023-03-31T10:38:10.038Z,987.95
2023-03-31T10:39:10.011Z,987.93
2023-03-31T10:40:10.009Z,987.97
2023-03-31T10:41:10.355Z,987.95
2023-03-31T10:42:09.991Z,987.92
2023-03-31T10:43:09.951Z,987.95
2023-03-31T10:44:11.901Z,987.91
2023-03-31T10:45:09.932Z,987.88
2023-03-31T10:46:10.020Z,987.83
2023-03-31T10:47:09.923Z,987.79
2023-03-31T10:48:09.938Z,987.83
2023-03-31T10:49:09.899Z,987.81
2023-03-31T10:50:09.894Z,987.75
2023-03-31T10:51:10.538Z,987.76
2023-03-31T10:52:09.872Z,987.68
2023-03-31T10:53:09.845Z,987.73
2023-03-31T10:54:09.847Z,987.75
2023-03-31T10:55:09.820Z,987.67
2023-03-31T10:56:09.830Z,987.69
2023-03-31T10:57:09.827Z,987.67
2023-03-31T10:58:09.803Z,987.64
2023-03-31T10:59:09.792Z,987.60
2023-03-31T11:00:09.798Z,987.66
2023-03-31T11:01:09.847Z,987.64
2023-03-31T11:02:09.811Z,987.64
2023-03-31T11:03:09.864Z,987.61
2023-03-31T11:04:09.760Z,987.67
2023-03-31T11:05:09.724Z,987.62
2023-03-31T11:06:10.151Z,987.63
2023-03-31T11:07:09.729Z,987.56
2023-03-31T11:08:09.727Z,987.57
2023-03-31T11:09:09.703Z,987.58
2023-03-31T11:10:09.697Z,987.55
2023-03-31T11:11:09.699Z,987.54
2023-03-31T11:12:09.643Z,987.54
2023-03-31T11:13:09.661Z,987.47
2023-03-31T11:14:09.625Z,987.48
2023-03-31T11:15:09.807Z,987.44
2023-03-31T11:16:09.731Z,987.47
2023-03-31T11:17:09.621Z,987.43
2023-03-31T11:18:09.658Z,987.47
2023-03-31T11:19:09.602Z,987.47
2023-03-31T11:20:09.612Z,987.42
2023-03-31T11:21:09.590Z,987.40
2023-03-31T11:22:09.558Z,987.38
2023-03-31T11:23:09.536Z,987.40
2023-03-31T11:24:09.536Z,987.37
2023-03-31T11:25:09.509Z,987.39
2023-03-31T11:26:09.510Z,987.36
2023-03-31T11:27:10.430Z,987.39
2023-03-31T11:28:09.487Z,987.37
2023-03-31T11:29:09.493Z,987.38
2023-03-31T11:30:09.470Z,987.31
2023-03-31T11:31:09.451Z,987.34
2023-03-31T11:32:09.661Z,987.35
2023-03-31T11:33:09.432Z,987.30
2023-03-31T11:34:09.414Z,987.28
2023-03-31T11:35:09.396Z,987.31
2023-03-31T11:36:09.420Z,987.27
2023-03-31T11:37:09.376Z,987.23
2023-03-31T11:38:09.361Z,987.24
2023-03-31T11:39:09.357Z,987.23
2023-03-31T11:40:09.347Z,987.24
2023-03-31T11:41:09.465Z,987.19
2023-03-31T11:42:09.323Z,987.23
2023-03-31T11:43:09.382Z,987.17
2023-03-31T11:44:09.296Z,987.20
2023-03-31T11:45:09.301Z,987.22
2023-03-31T11:46:09.535Z,987.18
2023-03-31T11:47:09.286Z,987.19
2023-03-31T11:48:09.281Z,987.18
2023-03-31T11:49:09.281Z,987.19
2023-03-31T11:50:09.250Z,987.13
2023-03-31T11:51:09.255Z,987.14
2023-03-31T11:52:09.207Z,987.13
2023-03-31T11:53:09.207Z,987.07
2023-03-31T11:54:09.202Z,987.03
2023-03-31T11:55:09.208Z,987.08
2023-03-31T11:56:09.381Z,987.06
2023-03-31T11:57:09.328Z,987.02
2023-03-31T11:58:09.282Z,987.04
2023-03-31T11:59:09.200Z,987.04
2023-03-31T12:00:09.147Z,986.99
2023-03-31T12:01:09.235Z,987.02
2023-03-31T12:02:09.097Z,986.95
2023-03-31T12:03:09.176Z,986.90
2023-03-31T12:04:09.110Z,986.95
2023-03-31T12:05:09.087Z,986.94
2023-03-31T12:06:09.504Z,986.92
2023-03-31T12:07:09.071Z,986.96
2023-03-31T12:08:09.040Z,986.95
2023-03-31T12:09:09.035Z,986.95
2023-03-31T12:10:09.026Z,986.91
2023-03-31T12:11:09.010Z,986.94
2023-03-31T12:12:08.982Z,986.93
2023-03-31T12:13:08.993Z,986.94
2023-03-31T12:14:08.979Z,986.92
2023-03-31T12:15:08.984Z,986.94
2023-03-31T12:16:09.301Z,986.88
2023-03-31T12:17:09.138Z,986.81
2023-03-31T12:18:08.964Z,986.83
2023-03-31T12:19:08.919Z,986.83
2023-03-31T12:20:08.925Z,986.81
2023-03-31T12:21:08.916Z,986.80
2023-03-31T12:22:08.887Z,986.81
2023-03-31T12:23:08.888Z,986.77
2023-03-31T12:24:08.866Z,986.78
2023-03-31T12:25:08.864Z,986.76
2023-03-31T12:26:08.935Z,986.71
2023-03-31T12:27:08.842Z,986.71
2023-03-31T12:28:08.825Z,986.77